Time;durP1;ratioP1;P1;durP2;ratioP2;P2;SDS_P1;SDS_P2;PMS_P1;PMS_P2;Temp;Humidity;BMP_temperature;BMP_pressure;BME280_temperature;BME280_humidity;BME280_pressure;Samples;Min_cycle;Max_cycle;Signal;HPM_P1;HPM_P2
2024/02/12 00:04:39;;;;;;;;;;;6.40;99.90;;;;;;21285163;27;19915;-79
2024/02/12 00:14:40;;;;;;;;;;;6.40;99.90;;;;;;21246419;27;20294;-79
2024/02/12 00:24:41;;;;;;;;;;;6.40;99.90;;;;;;21242306;28;19912;-78
2024/02/12 00:34:41;;;;;;;;;;;6.30;99.90;;;;;;21225864;28;19916;-79
2024/02/12 00:44:42;;;;;;;;;;;6.30;99.90;;;;;;21248673;28;19919;-79
2024/02/12 00:54:43;;;;;;;;;;;6.40;99.90;;;;;;21241475;28;19917;-79
2024/02/12 01:04:44;;;;;;;;;;;6.40;99.90;;;;;;21233861;27;19919;-79
2024/02/12 01:14:45;;;;;;;;;;;6.40;99.90;;;;;;21327109;27;19915;-79
2024/02/12 01:24:46;;;;;;;;;;;6.40;99.90;;;;;;21312130;27;20430;-78
2024/02/12 01:34:46;;;;;;;;;;;6.40;99.90;;;;;;21334863;27;19915;-78
2024/02/12 01:44:57;;;;;;;;;;;6.50;99.90;;;;;;21318735;27;20388;-78
2024/02/12 01:55:02;;;;;;;;;;;6.60;99.90;;;;;;21304785;27;20355;-78
2024/02/12 02:05:04;;;;;;;;;;;6.50;99.90;;;;;;21313040;27;19916;-78
2024/02/12 02:15:07;;;;;;;;;;;6.40;99.90;;;;;;21230480;27;20461;-78
2024/02/12 02:25:11;;;;;;;;;;;6.40;99.90;;;;;;21212430;27;19923;-78
2024/02/12 02:35:13;;;;;;;;;;;6.40;99.90;;;;;;21216601;27;19920;-79
2024/02/12 02:45:14;;;;;;;;;;;6.40;99.90;;;;;;21232323;27;19956;-79
2024/02/12 02:55:17;;;;;;;;;;;6.30;99.90;;;;;;21230489;27;19924;-78
2024/02/12 03:05:17;;;;;;;;;;;6.20;99.90;;;;;;21229305;27;20103;-79
2024/02/12 03:15:19;;;;;;;;;;;6.20;99.90;;;;;;21239667;27;19923;-79
2024/02/12 03:25:20;;;;;;;;;;;6.30;99.90;;;;;;21250735;27;19934;-79
2024/02/12 03:35:21;;;;;;;;;;;6.30;99.90;;;;;;21242210;27;19939;-79
2024/02/12 03:45:21;;;;;;;;;;;6.20;99.90;;;;;;21237553;27;19998;-79
2024/02/12 04:05:41;;;;;;;;;;;6.20;99.90;;;;;;21298029;27;19926;-78
2024/02/12 04:15:42;;;;;;;;;;;6.30;99.90;;;;;;21384410;27;19943;-78
2024/02/12 04:25:42;;;;;;;;;;;6.20;99.90;;;;;;21340096;27;19938;-79
2024/02/12 04:35:44;;;;;;;;;;;6.20;99.90;;;;;;21310089;27;19923;-79
2024/02/12 04:45:45;;;;;;;;;;;6.10;99.90;;;;;;21324961;27;19911;-80
2024/02/12 04:55:45;;;;;;;;;;;6.00;99.90;;;;;;21341881;27;19922;-80
2024/02/12 05:05:47;;;;;;;;;;;6.00;99.90;;;;;;21368171;27;19915;-79
2024/02/12 05:15:50;;;;;;;;;;;5.90;99.90;;;;;;21320946;27;19922;-79
2024/02/12 05:25:50;;;;;;;;;;;5.80;99.90;;;;;;21324458;27;19959;-79
2024/02/12 05:35:52;;;;;;;;;;;5.80;99.90;;;;;;21362621;27;19915;-80
2024/02/12 05:45:53;;;;;;;;;;;5.70;99.90;;;;;;21360198;27;19911;-78
2024/02/12 05:55:57;;;;;;;;;;;5.70;99.90;;;;;;21355496;27;19922;-79
2024/02/12 06:05:58;;;;;;;;;;;5.70;99.90;;;;;;21323752;27;19919;-80
2024/02/12 06:15:58;;;;;;;;;;;5.70;99.90;;;;;;21352995;27;19915;-79
2024/02/12 06:25:59;;;;;;;;;;;5.70;99.90;;;;;;21363690;27;19925;-79
2024/02/12 06:36:01;;;;;;;;;;;5.70;99.90;;;;;;21355262;27;19915;-78
2024/02/12 06:46:03;;;;;;;;;;;5.70;99.90;;;;;;21358244;27;19919;-79
2024/02/12 06:56:04;;;;;;;;;;;5.70;99.90;;;;;;21364011;27;19915;-80
2024/02/12 07:06:05;;;;;;;;;;;5.70;99.90;;;;;;21368586;27;20369;-80
2024/02/12 07:16:08;;;;;;;;;;;5.80;99.90;;;;;;21361136;27;19937;-77
2024/02/12 07:26:08;;;;;;;;;;;5.80;99.90;;;;;;21356244;27;20378;-79
2024/02/12 07:36:09;;;;;;;;;;;5.90;99.90;;;;;;21339588;27;19922;-80
2024/02/12 07:46:11;;;;;;;;;;;5.90;99.90;;;;;;21348017;27;19917;-80
2024/02/12 07:56:12;;;;;;;;;;;6.00;99.90;;;;;;21329543;27;20386;-79
2024/02/12 08:06:12;;;;;;;;;;;6.00;99.90;;;;;;21360845;27;19919;-78
2024/02/12 08:16:13;;;;;;;;;;;6.20;99.90;;;;;;21340285;27;20059;-78
2024/02/12 08:26:15;;;;;;;;;;;6.30;99.90;;;;;;21357388;27;20270;-78
2024/02/12 08:36:17;;;;;;;;;;;6.50;99.90;;;;;;21366506;27;19915;-78
2024/02/12 08:46:18;;;;;;;;;;;6.50;99.90;;;;;;21367312;27;19962;-78
2024/02/12 08:56:20;;;;;;;;;;;6.50;99.90;;;;;;21356257;27;19915;-78
2024/02/12 09:06:21;;;;;;;;;;;6.60;99.90;;;;;;21349872;27;19915;-78
2024/02/12 09:16:22;;;;;;;;;;;6.60;99.90;;;;;;21233640;27;19923;-78
2024/02/12 09:26:22;;;;;;;;;;;6.60;99.90;;;;;;21214997;27;20579;-78
2024/02/12 09:36:25;;;;;;;;;;;6.70;99.90;;;;;;21218042;27;19922;-79
2024/02/12 09:46:27;;;;;;;;;;;6.70;99.90;;;;;;21216633;27;19912;-78
2024/02/12 09:56:31;;;;;;;;;;;6.70;99.90;;;;;;21213600;27;19930;-79
2024/02/12 10:06:32;;;;;;;;;;;7.00;99.90;;;;;;21214060;27;19923;-77
2024/02/12 10:16:32;;;;;;;;;;;7.10;99.90;;;;;;21247145;27;19928;-80
2024/02/12 10:26:33;;;;;;;;;;;7.10;99.90;;;;;;21273163;27;19919;-79
2024/02/12 10:36:35;;;;;;;;;;;7.20;99.90;;;;;;21278894;27;19915;-79
2024/02/12 10:46:35;;;;;;;;;;;7.70;99.90;;;;;;21272023;27;19918;-79
2024/02/12 10:56:37;;;;;;;;;;;8.00;99.90;;;;;;21275391;27;19950;-79
2024/02/12 11:06:41;;;;;;;;;;;8.10;99.90;;;;;;21309473;27;20373;-78
2024/02/12 11:16:42;;;;;;;;;;;8.40;99.90;;;;;;21355521;27;20394;-79
2024/02/12 11:26:43;;;;;;;;;;;8.30;99.90;;;;;;21341949;27;19928;-79
2024/02/12 11:36:48;;;;;;;;;;;8.20;99.90;;;;;;21357022;27;19926;-78
2024/02/12 11:47:00;;;;;;;;;;;8.00;99.90;;;;;;21325496;27;19998;-79
2024/02/12 11:57:01;;;;;;;;;;;8.10;99.90;;;;;;21348293;27;20005;-80
2024/02/12 12:07:12;;;;;;;;;;;7.90;99.90;;;;;;21374412;27;19979;-78
2024/02/12 12:17:14;;;;;;;;;;;8.00;99.90;;;;;;21396908;27;19934;-78
2024/02/12 12:27:22;;;;;;;;;;;8.00;99.90;;;;;;21351623;27;19911;-79
2024/02/12 12:37:23;;;;;;;;;;;8.10;99.90;;;;;;21335180;27;19919;-78
2024/02/12 12:47:24;;;;;;;;;;;8.00;99.90;;;;;;21343857;27;19911;-80
2024/02/12 12:57:25;;;;;;;;;;;8.00;99.90;;;;;;21306779;27;19928;-79
2024/02/12 13:07:25;;;;;;;;;;;8.10;99.90;;;;;;21346990;27;19992;-79
2024/02/12 13:17:27;;;;;;;;;;;8.10;99.90;;;;;;21350183;27;20000;-79
2024/02/12 13:27:27;;;;;;;;;;;8.20;99.90;;;;;;21370073;27;19934;-80
2024/02/12 13:37:28;;;;;;;;;;;8.40;99.90;;;;;;21298715;27;19970;-80
2024/02/12 13:47:29;;;;;;;;;;;8.50;99.90;;;;;;21360584;27;20373;-79
2024/02/12 13:57:29;;;;;;;;;;;8.60;99.90;;;;;;21359013;27;19919;-78
2024/02/12 14:07:30;;;;;;;;;;;8.70;99.90;;;;;;21319698;27;19946;-77
2024/02/12 14:17:31;;;;;;;;;;;8.50;99.90;;;;;;21318288;27;19919;-78
2024/02/12 14:27:32;;;;;;;;;;;8.50;99.90;;;;;;21299214;27;19950;-79
2024/02/12 14:37:32;;;;;;;;;;;8.50;99.90;;;;;;21325295;27;20031;-79
2024/02/12 14:47:33;;;;;;;;;;;8.50;99.90;;;;;;21357633;27;20018;-77
2024/02/12 14:57:34;;;;;;;;;;;8.60;99.90;;;;;;21358642;27;19919;-78
2024/02/12 15:07:34;;;;;;;;;;;8.70;99.90;;;;;;21357737;27;20480;-78
2024/02/12 15:17:35;;;;;;;;;;;8.60;99.90;;;;;;21360248;27;19954;-79
2024/02/12 15:27:41;;;;;;;;;;;8.60;99.90;;;;;;21357270;27;19911;-79
2024/02/12 15:37:43;;;;;;;;;;;8.60;99.90;;;;;;21349290;27;19915;-79
2024/02/12 15:47:46;;;;;;;;;;;8.50;99.90;;;;;;21352000;27;20369;-80
2024/02/12 15:57:48;;;;;;;;;;;8.30;99.90;;;;;;21329834;27;19982;-79
2024/02/12 16:07:49;;;;;;;;;;;8.20;99.90;;;;;;21324300;27;19954;-81
2024/02/12 16:17:50;;;;;;;;;;;8.20;99.90;;;;;;21336851;27;19915;-81
2024/02/12 16:27:50;;;;;;;;;;;8.10;99.90;;;;;;21319841;27;19915;-78
2024/02/12 16:37:51;;;;;;;;;;;7.90;99.90;;;;;;21303097;27;19919;-80
2024/02/12 16:47:52;;;;;;;;;;;7.90;99.90;;;;;;21319966;27;19912;-80
2024/02/12 16:57:53;;;;;;;;;;;7.60;99.90;;;;;;21340817;27;19919;-79
2024/02/12 17:07:53;;;;;;;;;;;7.30;99.90;;;;;;21357335;27;19955;-78
2024/02/12 17:17:54;;;;;;;;;;;7.00;99.90;;;;;;21351733;27;19914;-79
2024/02/12 17:27:55;;;;;;;;;;;7.20;99.90;;;;;;21358511;27;19915;-79
2024/02/12 17:37:56;;;;;;;;;;;7.00;99.90;;;;;;21329699;27;20309;-79
2024/02/12 17:47:56;;;;;;;;;;;7.00;99.90;;;;;;21310710;27;19930;-80
2024/02/12 17:57:57;;;;;;;;;;;6.80;99.90;;;;;;21319099;27;20301;-79
2024/02/12 18:07:58;;;;;;;;;;;6.70;99.90;;;;;;21345924;27;19915;-80
2024/02/12 18:18:00;;;;;;;;;;;6.10;99.90;;;;;;21321394;27;19915;-79
2024/02/12 18:28:00;;;;;;;;;;;5.70;99.90;;;;;;21346540;27;19911;-80
2024/02/12 18:38:02;;;;;;;;;;;5.70;99.90;;;;;;21334181;27;19915;-78
2024/02/12 18:48:05;;;;;;;;;;;5.50;99.90;;;;;;21331251;27;19957;-78
2024/02/12 18:58:06;;;;;;;;;;;5.60;99.90;;;;;;21313621;27;19923;-78
2024/02/12 19:08:07;;;;;;;;;;;5.40;99.90;;;;;;21342390;27;19915;-78
2024/02/12 19:18:08;;;;;;;;;;;5.30;99.90;;;;;;21333067;27;19915;-78
2024/02/12 19:28:10;;;;;;;;;;;4.80;99.90;;;;;;21268691;27;19919;-79
2024/02/12 19:38:10;;;;;;;;;;;5.00;99.90;;;;;;21351555;27;19915;-79
2024/02/12 19:48:11;;;;;;;;;;;5.00;99.90;;;;;;21342479;27;20408;-80
2024/02/12 19:58:12;;;;;;;;;;;5.10;99.90;;;;;;21375872;27;20036;-79
2024/02/12 20:08:12;;;;;;;;;;;5.10;99.90;;;;;;21369800;27;19915;-80
2024/02/12 20:18:13;;;;;;;;;;;4.90;99.90;;;;;;21327279;27;19995;-78
2024/02/12 20:28:14;;;;;;;;;;;4.90;99.90;;;;;;21379321;27;19915;-79
2024/02/12 20:38:14;;;;;;;;;;;4.80;99.90;;;;;;21347253;27;19915;-80
2024/02/12 20:48:16;;;;;;;;;;;4.70;99.90;;;;;;21375847;27;19946;-79
2024/02/12 20:58:17;;;;;;;;;;;4.90;99.90;;;;;;21385741;27;19923;-79
2024/02/12 21:08:18;;;;;;;;;;;5.00;99.90;;;;;;21374846;27;20416;-78
2024/02/12 21:18:18;;;;;;;;;;;4.90;99.90;;;;;;21347442;27;19922;-79
2024/02/12 21:28:19;;;;;;;;;;;5.00;99.90;;;;;;21378281;27;19911;-79
2024/02/12 21:38:20;;;;;;;;;;;5.10;99.90;;;;;;21351694;27;19915;-80
2024/02/12 21:48:21;;;;;;;;;;;5.20;99.90;;;;;;21377274;27;19932;-78
2024/02/12 21:58:22;;;;;;;;;;;5.00;99.90;;;;;;21366053;27;19982;-79
2024/02/12 22:08:23;;;;;;;;;;;5.00;99.90;;;;;;21317229;27;19919;-78
2024/02/12 22:18:23;;;;;;;;;;;5.00;99.90;;;;;;21275621;27;19926;-80
2024/02/12 22:28:24;;;;;;;;;;;5.10;99.90;;;;;;21273026;27;19915;-79
2024/02/12 22:38:25;;;;;;;;;;;4.90;99.90;;;;;;21265728;27;19961;-79
2024/02/12 22:48:27;;;;;;;;;;;4.70;99.90;;;;;;21269481;27;19935;-77
2024/02/12 22:58:28;;;;;;;;;;;4.80;99.90;;;;;;21258758;27;19994;-80
2024/02/12 23:08:28;;;;;;;;;;;4.60;99.90;;;;;;21301919;27;19915;-79
2024/02/12 23:18:29;;;;;;;;;;;4.30;99.90;;;;;;21353840;27;19922;-80
2024/02/12 23:28:35;;;;;;;;;;;4.00;99.90;;;;;;21359533;27;19911;-79
2024/02/12 23:38:36;;;;;;;;;;;3.90;99.90;;;;;;21325849;27;19930;-80
2024/02/12 23:48:37;;;;;;;;;;;3.80;99.90;;;;;;21355023;27;19919;-80
2024/02/12 23:58:38;;;;;;;;;;;3.60;99.90;;;;;;21341297;27;20080;-80
